DW4005 Mahon ES current weather conditions

sailwx.info

Last reported at 2016-Aug-30 19:38 UTC.
Time now 2016-Aug-30 20:48 UTC

Location: N 39°56' E 004°08'.
View on Google Maps.

See reports from other nearby stations

  
Tides and Currents Weather Stations Pressure Air Temp Water Temp Dewpoint Dewpoint Depression Visibility Wind Speed Wind Dir Waves Ship Positions
date/time (UTC)wind fromknots sea level pressurealtimeterstation pressurevisibilityair tempwater tempwave heightnotes
2016-Aug-30 19:38
2016-Aug-30 19:23
2016-Aug-30 19:08
2016-Aug-30 18:52
2016-Aug-30 18:37
2016-Aug-30 18:22
2016-Aug-30 18:07 031 24.4
2016-Aug-30 17:52 035 0 gusting 4 25.0
2016-Aug-30 17:37 038 1 gusting 4 25.0
2016-Aug-30 17:22 031 1 gusting 4 25.0
2016-Aug-30 17:07 020 1 gusting 4 25.6
2016-Aug-30 16:52 046 26.1
2016-Aug-30 16:37 051 1 gusting 5 26.1
2016-Aug-30 16:22 009 26.7
2016-Aug-30 16:07 021 0 gusting 4 27.2
2016-Aug-30 15:52 046 1 gusting 6 27.8
2016-Aug-30 15:37 313 1 gusting 5 28.3
2016-Aug-30 15:22 323 28.3
2016-Aug-30 15:07 036 1 gusting 5 28.3
2016-Aug-30 14:52 338 0 gusting 4 28.3
2016-Aug-30 14:37 333 0 gusting 6 28.3
2016-Aug-30 14:22 342 1 gusting 6 28.3
2016-Aug-30 14:07 051 2 gusting 6 27.8
2016-Aug-30 13:52 335 2 gusting 6 28.3
2016-Aug-30 13:38 323 1 gusting 6 28.3
2016-Aug-30 13:22 350 1 gusting 5 28.3
2016-Aug-30 13:10 280 0 gusting 6 27.8
2016-Aug-30 12:52 294 2 gusting 6 27.2
2016-Aug-30 12:37 314 2 gusting 6 27.2
2016-Aug-30 12:22 350 0 gusting 5 27.2
2016-Aug-30 12:07 323 27.8
2016-Aug-30 11:52 014 1 gusting 6 27.8
2016-Aug-30 11:37 309 1 gusting 6 27.2
2016-Aug-30 11:22 313 1 gusting 6 27.8
2016-Aug-30 11:07 262 1 gusting 6 28.3
2016-Aug-30 10:52 288 27.8
2016-Aug-30 10:37 024 0 gusting 5 27.2
2016-Aug-30 10:22 323 1 gusting 6 27.2
2016-Aug-30 10:07 033 2 gusting 6 27.8
2016-Aug-30 09:52 036 4 gusting 7 27.8
2016-Aug-30 09:37 319 1 gusting 6 27.8
2016-Aug-30 09:22 040 2 gusting 6 27.8
2016-Aug-30 09:07 311 1 gusting 6 27.2
2016-Aug-30 08:52 360 1 gusting 5 26.7
2016-Aug-30 08:37 360 0 gusting 5 26.7
2016-Aug-30 08:22 274 1 gusting 5 26.7
2016-Aug-30 08:07 086 1 gusting 5 26.1
2016-Aug-30 07:52 331 1 gusting 6 25.6
2016-Aug-30 07:37 283 1 gusting 6 24.4
2016-Aug-30 07:21 040 2 gusting 8 23.9
2016-Aug-30 07:06 319 1 gusting 9 23.9
2016-Aug-30 06:51 045 1 gusting 6 23.3
2016-Aug-30 06:36 028 1 gusting 10 23.3
2016-Aug-30 06:21 056 1 gusting 9 23.3
2016-Aug-30 06:06 311 2 gusting 9 23.3
2016-Aug-30 05:51
2016-Aug-30 05:36
2016-Aug-30 05:21
2016-Aug-30 05:06
2016-Aug-30 04:51
2016-Aug-30 04:36
2016-Aug-30 04:21
2016-Aug-30 04:06
2016-Aug-30 03:51
2016-Aug-30 03:36
2016-Aug-30 03:20
2016-Aug-30 03:05
2016-Aug-30 02:50
2016-Aug-30 02:35
2016-Aug-30 02:20
2016-Aug-30 02:05
2016-Aug-30 01:50
2016-Aug-30 01:35
2016-Aug-30 01:20
2016-Aug-30 01:05
2016-Aug-30 00:50
2016-Aug-30 00:35
2016-Aug-30 00:20
2016-Aug-30 00:05
2016-Aug-29 23:50
2016-Aug-29 23:34
2016-Aug-29 23:19
2016-Aug-29 23:04
2016-Aug-29 22:49
2016-Aug-29 22:34
2016-Aug-29 22:19
2016-Aug-29 22:04
2016-Aug-29 21:49
2016-Aug-29 21:34
2016-Aug-29 21:04
2016-Aug-29 20:49
2016-Aug-29 20:34
2016-Aug-29 20:18
2016-Aug-29 20:03
2016-Aug-29 19:48
2016-Aug-29 19:33
2016-Aug-29 19:18
2016-Aug-29 19:03
2016-Aug-29 18:48
2016-Aug-29 18:33
2016-Aug-29 18:18
2016-Aug-29 18:03 040 1 gusting 6 25.0
2016-Aug-29 17:48 038 1 gusting 6 25.6
2016-Aug-29 17:33 045 0 gusting 5 25.6
2016-Aug-29 17:18 049 2 gusting 6 25.6
2016-Aug-29 17:03 049 1 gusting 6 26.1
2016-Aug-29 16:48 043 1 gusting 6 26.1
2016-Aug-29 16:33 075 2 gusting 6 26.1
2016-Aug-29 16:18 053 0 gusting 6 26.1
2016-Aug-29 16:03 032 2 gusting 6 26.7
2016-Aug-29 15:48 346 1 gusting 5 26.7
2016-Aug-29 15:33 036 1 gusting 6 26.7
2016-Aug-29 15:18 054 1 gusting 7 27.2
2016-Aug-29 15:03 047 3 gusting 6 27.2
2016-Aug-29 14:48 054 2 gusting 6 27.2
2016-Aug-29 14:33 070 2 gusting 6 27.8
2016-Aug-29 14:18 034 2 gusting 6 27.2
2016-Aug-29 14:03 062 1 gusting 6 27.2
2016-Aug-29 13:48 050 2 gusting 6 27.2
2016-Aug-29 13:33 055 3 gusting 6 27.8
2016-Aug-29 13:18 036 2 gusting 6 27.2
2016-Aug-29 13:04 088 2 gusting 6 27.2
2016-Aug-29 12:47 047 2 gusting 6 27.2
2016-Aug-29 12:32 049 2 gusting 6 26.7
2016-Aug-29 12:17 038 1 gusting 6 26.1
2016-Aug-29 12:03 031 26.7
2016-Aug-29 11:47 315 26.7
2016-Aug-29 11:33 112 6 gusting 10 27.2
2016-Aug-29 11:17 033 2 gusting 6 27.8
2016-Aug-29 11:03 038 27.8
2016-Aug-29 10:48 049 0 gusting 4 28.3
2016-Aug-29 10:33 051 2 gusting 6 28.3
2016-Aug-29 10:17 080 1 gusting 6 28.9
2016-Aug-29 10:03 039 1 gusting 6 28.9
2016-Aug-29 09:48 005 1 gusting 5 28.9
2016-Aug-29 09:32 028 0 gusting 6 28.3
2016-Aug-29 09:17 029 2 gusting 6 27.8
2016-Aug-29 09:02 026 0 gusting 4 26.7
2016-Aug-29 08:47 027 26.1
2016-Aug-29 08:32 024 25.0
2016-Aug-29 08:17 360 25.0
2016-Aug-29 08:02 355 25.6
2016-Aug-29 07:47 039 25.6
2016-Aug-29 07:32 046 25.0
2016-Aug-29 07:17 062 24.4
2016-Aug-29 07:02 140 24.4
2016-Aug-29 06:47 140 23.9
2016-Aug-29 06:32 148 24.4
2016-Aug-29 06:17 149 23.9
2016-Aug-29 06:02 149 23.3
2016-Aug-29 05:47 149 23.3
2016-Aug-29 05:32
2016-Aug-29 05:17
2016-Aug-29 05:02
2016-Aug-29 04:47
2016-Aug-29 04:32
2016-Aug-29 04:16
2016-Aug-29 04:02
2016-Aug-29 03:46
2016-Aug-29 03:31
2016-Aug-29 03:16
2016-Aug-29 03:01
2016-Aug-29 02:46
2016-Aug-29 02:31
2016-Aug-29 02:16
2016-Aug-29 02:01
2016-Aug-29 01:46
2016-Aug-29 01:31
2016-Aug-29 01:16
2016-Aug-29 01:01
2016-Aug-29 00:45
2016-Aug-29 00:30
2016-Aug-29 00:15
2016-Aug-29 00:00
2016-Aug-28 23:45
2016-Aug-28 23:30
2016-Aug-28 23:15
2016-Aug-28 23:00
2016-Aug-28 22:30
2016-Aug-28 22:15
2016-Aug-28 22:00
2016-Aug-28 21:45
2016-Aug-28 21:29
2016-Aug-28 21:14
2016-Aug-28 20:59
2016-Aug-28 20:44
2016-Aug-28 20:29
2016-Aug-28 20:14